Arnold, Michigan
Current Conditions -  °F | °C
As of 6:48 PM on Saturday 20 Dec 2014 (Local Time) from KSAW Reporting Station
Overcast Overcast  
Wind Chill: 20°   Ceiling: 1800
Heat Index: 27°   Visibility: 7mi
Dew Point: 23°   Wind: 6mph
Humidity: 86%   Direction: 180°S
Pressure: 30.18"   Gusts: NA
Location:  46.05°N, 87.49°W
Report Text: KSAW 202348Z 18005KT 7SM OVC018 M03/M05 A3018
Loading
Personal Weather Stations






























Interactive Weather Map New forecast layout! Learn more

10-Day Weather Forecast

Advertisements
Track Severe Weather on mobile